createdAt,value
2023-02-26T00:01:42.080Z,98065.72
2023-02-26T00:04:11.600Z,98059.59
2023-02-26T00:06:52.340Z,98062.22
2023-02-26T00:09:21.212Z,98067.81
2023-02-26T00:11:50.010Z,98070.53
2023-02-26T00:14:21.248Z,98066.16
2023-02-26T00:16:55.650Z,98068.72
2023-02-26T00:19:25.217Z,98067.03
2023-02-26T00:21:53.598Z,98072.81
2023-02-26T00:24:21.649Z,98069.41
2023-02-26T00:26:49.698Z,98065.00
2023-02-26T00:29:18.351Z,98082.69
2023-02-26T00:31:46.645Z,98061.31
2023-02-26T00:34:15.030Z,98076.69
2023-02-26T00:36:46.928Z,98069.59
2023-02-26T00:39:20.480Z,98066.38
2023-02-26T00:41:49.488Z,98079.03
2023-02-26T00:44:17.811Z,98082.63
2023-02-26T00:46:50.683Z,98076.00
2023-02-26T00:49:24.568Z,98075.41
2023-02-26T00:51:56.670Z,98079.50
2023-02-26T00:54:26.412Z,98079.53
2023-02-26T00:56:54.847Z,98080.06
2023-02-26T00:59:23.220Z,98050.59
2023-02-26T01:01:51.871Z,98083.69
2023-02-26T01:04:21.620Z,98077.28
2023-02-26T01:06:51.010Z,98079.59
2023-02-26T01:09:23.957Z,98080.94
2023-02-26T01:11:52.411Z,98078.94
2023-02-26T01:14:21.570Z,98083.06
2023-02-26T01:16:52.828Z,98082.59
2023-02-26T01:19:25.570Z,98082.78
2023-02-26T01:21:57.429Z,98080.88
2023-02-26T01:24:30.222Z,98081.41
2023-02-26T01:26:58.376Z,98086.16
2023-02-26T01:29:26.652Z,98078.47
2023-02-26T01:31:57.274Z,98080.69
2023-02-26T01:34:30.868Z,98075.28
2023-02-26T01:37:04.006Z,98077.75
2023-02-26T01:39:37.696Z,98076.88
2023-02-26T01:42:12.437Z,98087.75
2023-02-26T01:44:43.249Z,98082.97
2023-02-26T01:47:16.958Z,98083.06
2023-02-26T01:49:45.333Z,98085.78
2023-02-26T01:52:32.152Z,98088.81
2023-02-26T01:55:03.439Z,98078.03
2023-02-26T01:57:31.495Z,98082.25
2023-02-26T01:59:59.602Z,98081.25
2023-02-26T02:02:28.288Z,98077.81
2023-02-26T02:05:03.897Z,98076.56
2023-02-26T02:07:31.925Z,98079.09
2023-02-26T02:09:59.968Z,98075.50
2023-02-26T02:12:33.520Z,98078.63
2023-02-26T02:15:08.841Z,98085.69
2023-02-26T02:17:41.684Z,98081.13
2023-02-26T02:20:23.217Z,98077.50
2023-02-26T02:23:02.329Z,98085.63
2023-02-26T02:25:46.796Z,98096.47
2023-02-26T02:28:20.958Z,98098.47
2023-02-26T02:31:03.366Z,98103.69
2023-02-26T02:33:34.906Z,98105.19
2023-02-26T02:36:07.286Z,98096.97
2023-02-26T02:38:36.561Z,98100.88
2023-02-26T02:41:08.417Z,98103.13
2023-02-26T02:43:38.734Z,98112.97
2023-02-26T02:46:09.392Z,98115.03
2023-02-26T02:48:39.725Z,98113.34
2023-02-26T02:51:10.025Z,98121.72
2023-02-26T02:53:41.032Z,98113.94
2023-02-26T02:56:13.903Z,98116.56
2023-02-26T02:58:44.666Z,98120.78
2023-02-26T03:01:16.718Z,98116.84
2023-02-26T03:03:53.377Z,98108.47
2023-02-26T03:06:21.485Z,98128.03
2023-02-26T03:08:52.377Z,98112.94
2023-02-26T03:11:20.992Z,98117.16
2023-02-26T03:13:50.986Z,98118.91
2023-02-26T03:16:41.165Z,98126.97
2023-02-26T03:19:16.892Z,98122.94
2023-02-26T03:21:50.400Z,98120.19
2023-02-26T03:24:34.553Z,98123.97
2023-02-26T03:27:06.269Z,98130.94
2023-02-26T03:29:39.951Z,98130.63
2023-02-26T03:32:12.907Z,98145.16
2023-02-26T03:34:42.604Z,98140.31
2023-02-26T03:37:16.689Z,98145.69
2023-02-26T03:39:47.748Z,98149.69
2023-02-26T03:42:19.780Z,98148.97
2023-02-26T03:44:59.388Z,98151.38
2023-02-26T03:47:30.476Z,98161.09
2023-02-26T03:50:03.988Z,98152.16
2023-02-26T03:52:38.204Z,98156.38
2023-02-26T03:55:28.857Z,98152.72
2023-02-26T03:58:09.987Z,98157.28
2023-02-26T04:00:51.869Z,98160.09
2023-02-26T04:03:24.853Z,98172.72
2023-02-26T04:05:53.720Z,98168.47
2023-02-26T04:08:22.440Z,98170.72
2023-02-26T04:10:54.213Z,98173.50
2023-02-26T04:13:22.583Z,98176.03
2023-02-26T04:15:51.278Z,98171.03
2023-02-26T04:18:20.806Z,98187.13
2023-02-26T04:20:48.829Z,98189.13
2023-02-26T04:23:19.337Z,98185.28
2023-02-26T04:25:47.381Z,98184.97
2023-02-26T04:28:17.542Z,98183.31
2023-02-26T04:30:45.673Z,98185.03
2023-02-26T04:33:15.999Z,98175.66
2023-02-26T04:35:45.363Z,98189.56
2023-02-26T04:38:15.548Z,98189.94
2023-02-26T04:40:43.561Z,98188.13
2023-02-26T04:43:14.355Z,98191.13
2023-02-26T04:45:51.547Z,98188.31
2023-02-26T04:48:20.200Z,98189.94
2023-02-26T04:50:49.787Z,98194.94
2023-02-26T04:53:18.001Z,98201.25
2023-02-26T04:55:51.331Z,98204.25
2023-02-26T04:58:21.383Z,98205.06
2023-02-26T05:00:53.603Z,98209.06
2023-02-26T05:03:23.490Z,98212.88
2023-02-26T05:05:52.943Z,98214.47
2023-02-26T05:08:21.187Z,98214.19
2023-02-26T05:10:52.068Z,98212.84
2023-02-26T05:13:20.077Z,98214.69
2023-02-26T05:15:50.643Z,98224.06
2023-02-26T05:18:18.736Z,98229.22
2023-02-26T05:20:53.989Z,98221.84
2023-02-26T05:23:22.533Z,98229.50
2023-02-26T05:25:50.878Z,98224.75
2023-02-26T05:28:19.166Z,98227.44
2023-02-26T05:30:47.392Z,98224.47
2023-02-26T05:33:15.894Z,98230.81
2023-02-26T05:35:44.383Z,98234.56
2023-02-26T05:38:18.667Z,98238.72
2023-02-26T05:40:47.048Z,98237.34
2023-02-26T05:43:15.111Z,98228.44
2023-02-26T05:45:43.085Z,98238.41
2023-02-26T05:48:11.258Z,98241.00
2023-02-26T05:50:39.348Z,98252.81
2023-02-26T05:53:07.424Z,98254.31
2023-02-26T05:55:36.868Z,98252.34
2023-02-26T05:58:04.942Z,98259.28
2023-02-26T06:00:33.012Z,98256.00
2023-02-26T06:03:01.226Z,98262.88
2023-02-26T06:05:29.254Z,98267.28
2023-02-26T06:07:57.589Z,98276.28
2023-02-26T06:10:25.619Z,98280.97
2023-02-26T06:12:55.238Z,98276.53
2023-02-26T06:15:23.428Z,98281.75
2023-02-26T06:17:51.810Z,98263.75
2023-02-26T06:20:20.110Z,98288.88
2023-02-26T06:22:48.185Z,98299.00
2023-02-26T06:25:16.440Z,98295.22
2023-02-26T06:27:47.994Z,98287.84
2023-02-26T06:30:18.238Z,98293.75
2023-02-26T06:32:46.333Z,98296.53
2023-02-26T06:35:14.404Z,98304.53
2023-02-26T06:37:42.363Z,98303.13
2023-02-26T06:40:15.815Z,98318.41
2023-02-26T06:42:44.368Z,98322.63
2023-02-26T06:45:12.594Z,98326.06
2023-02-26T06:47:44.338Z,98336.84
2023-02-26T06:50:12.826Z,98341.00
2023-02-26T06:52:40.935Z,98346.16
2023-02-26T06:55:09.722Z,98352.81
2023-02-26T06:57:37.857Z,98353.06
2023-02-26T07:00:07.215Z,98359.66
2023-02-26T07:02:35.370Z,98366.44
2023-02-26T07:05:05.094Z,98366.84
2023-02-26T07:07:33.221Z,98366.84
2023-02-26T07:10:01.422Z,98363.16
2023-02-26T07:12:29.471Z,98369.19
2023-02-26T07:14:57.541Z,98378.34
2023-02-26T07:17:25.569Z,98379.09
2023-02-26T07:19:53.984Z,98382.38
2023-02-26T07:22:23.852Z,98386.06
2023-02-26T07:24:52.234Z,98376.63
2023-02-26T07:27:20.318Z,98390.72
2023-02-26T07:29:48.307Z,98384.78
2023-02-26T07:32:16.427Z,98396.19
2023-02-26T07:34:44.544Z,98392.00
2023-02-26T07:37:12.566Z,98395.88
2023-02-26T07:39:42.365Z,98404.19
2023-02-26T07:42:10.587Z,98400.91
2023-02-26T07:44:40.760Z,98404.47
2023-02-26T07:47:08.991Z,98412.06
2023-02-26T07:49:37.029Z,98402.81
2023-02-26T07:52:07.478Z,98402.16
2023-02-26T07:54:35.656Z,98415.09
2023-02-26T07:57:05.653Z,98413.44
2023-02-26T07:59:33.786Z,98407.44
2023-02-26T08:02:02.008Z,98409.66
2023-02-26T08:04:33.006Z,98402.47
2023-02-26T08:07:01.641Z,98402.66
2023-02-26T08:09:30.543Z,98410.13
2023-02-26T08:11:58.622Z,98411.75
2023-02-26T08:14:28.303Z,98412.13
2023-02-26T08:16:58.229Z,98410.16
2023-02-26T08:19:28.888Z,98411.13
2023-02-26T08:21:57.562Z,98407.66
2023-02-26T08:24:25.744Z,98418.56
2023-02-26T08:26:58.859Z,98417.47
2023-02-26T08:29:28.560Z,98423.09
2023-02-26T08:31:56.805Z,98416.47
2023-02-26T08:34:25.236Z,98431.72
2023-02-26T08:36:53.389Z,98437.41
2023-02-26T08:39:21.635Z,98431.75
2023-02-26T08:41:49.697Z,98437.41
2023-02-26T08:44:17.803Z,98439.56
2023-02-26T08:46:47.259Z,98441.41
2023-02-26T08:49:15.308Z,98442.88
2023-02-26T08:51:45.665Z,98451.19
2023-02-26T08:54:13.898Z,98453.38
2023-02-26T08:56:41.974Z,98455.81
2023-02-26T08:59:11.648Z,98456.34
2023-02-26T09:01:42.287Z,98448.84
2023-02-26T09:04:11.878Z,98456.16
2023-02-26T09:06:40.368Z,98462.16
2023-02-26T09:09:10.006Z,98459.16
2023-02-26T09:11:38.729Z,98449.03
2023-02-26T09:14:07.174Z,98473.97
2023-02-26T09:16:36.973Z,98481.78
2023-02-26T09:19:06.865Z,98468.97
2023-02-26T09:21:36.827Z,98484.28
2023-02-26T09:24:05.397Z,98482.78
2023-02-26T09:26:33.807Z,98487.78
2023-02-26T09:29:02.135Z,98483.28
2023-02-26T09:31:30.709Z,98502.69
2023-02-26T09:33:59.066Z,98475.28
2023-02-26T09:36:28.097Z,98479.94
2023-02-26T09:38:57.989Z,98493.09
2023-02-26T09:41:31.253Z,98493.56
2023-02-26T09:44:15.219Z,98500.91
2023-02-26T09:46:54.939Z,98499.22
2023-02-26T09:49:27.507Z,98507.38
2023-02-26T09:51:58.713Z,98497.53
2023-02-26T09:54:30.793Z,98494.19
2023-02-26T09:57:01.982Z,98502.06
2023-02-26T09:59:34.775Z,98495.75
2023-02-26T10:02:06.741Z,98497.41
2023-02-26T10:04:48.744Z,98479.16
2023-02-26T10:07:21.588Z,98511.88
2023-02-26T10:10:01.644Z,98507.88
2023-02-26T10:12:32.359Z,98523.31
2023-02-26T10:15:03.825Z,98522.84
2023-02-26T10:17:35.064Z,98517.16
2023-02-26T10:20:05.547Z,98509.84
2023-02-26T10:22:35.990Z,98511.97
2023-02-26T10:25:07.442Z,98524.25
2023-02-26T10:27:46.541Z,98511.72
2023-02-26T10:30:20.857Z,98519.78
2023-02-26T10:32:53.668Z,98523.94
2023-02-26T10:35:25.920Z,98523.88
2023-02-26T10:37:55.216Z,98529.63
2023-02-26T10:40:28.947Z,98530.72
2023-02-26T10:42:59.623Z,98531.66
2023-02-26T10:45:40.909Z,98521.84
2023-02-26T10:48:23.312Z,98532.69
2023-02-26T10:50:53.044Z,98523.91
2023-02-26T10:53:21.488Z,98530.81
2023-02-26T10:55:52.374Z,98528.97
2023-02-26T10:58:22.404Z,98532.94
2023-02-26T11:00:53.661Z,98545.22
2023-02-26T11:03:23.766Z,98531.97
2023-02-26T11:05:52.369Z,98556.41
2023-02-26T11:08:21.830Z,98533.06
2023-02-26T11:10:54.413Z,98530.56
2023-02-26T11:13:22.692Z,98551.34
2023-02-26T11:15:52.071Z,98534.53
2023-02-26T11:18:22.401Z,98537.56
2023-02-26T11:20:53.670Z,98536.72
2023-02-26T11:23:23.938Z,98536.81
2023-02-26T11:25:55.852Z,98543.97
2023-02-26T11:28:26.006Z,98541.38
2023-02-26T11:30:54.363Z,98547.69
2023-02-26T11:33:24.417Z,98549.72
2023-02-26T11:35:53.404Z,98555.03
2023-02-26T11:38:24.078Z,98550.53
2023-02-26T11:40:53.957Z,98537.84
2023-02-26T11:43:24.378Z,98548.69
2023-02-26T11:45:55.077Z,98549.88
2023-02-26T11:48:26.138Z,98557.28
2023-02-26T11:50:56.107Z,98563.53
2023-02-26T11:53:30.591Z,98540.69
2023-02-26T11:56:00.965Z,98544.78
2023-02-26T11:58:31.464Z,98547.03
2023-02-26T12:01:00.129Z,98548.53
2023-02-26T12:03:29.116Z,98556.44
2023-02-26T12:05:58.518Z,98540.03
2023-02-26T12:08:27.938Z,98544.78
2023-02-26T12:11:06.250Z,98546.56
2023-02-26T12:13:39.483Z,98545.56
2023-02-26T12:16:14.213Z,98535.22
2023-02-26T12:18:49.002Z,98544.44
2023-02-26T12:21:25.754Z,98539.28
2023-02-26T12:24:06.823Z,98564.97
2023-02-26T12:26:36.515Z,98544.00
2023-02-26T12:29:31.611Z,98547.47
2023-02-26T12:32:06.949Z,98544.31
2023-02-26T12:34:46.306Z,98549.59
2023-02-26T12:37:27.476Z,98547.00
2023-02-26T12:40:00.965Z,98557.84
2023-02-26T12:42:37.254Z,98551.41
2023-02-26T12:45:13.362Z,98548.56
2023-02-26T12:47:51.531Z,98546.47
2023-02-26T12:50:34.442Z,98560.13
2023-02-26T12:53:19.819Z,98557.16
2023-02-26T12:55:54.145Z,98570.16
2023-02-26T12:58:31.748Z,98562.34
2023-02-26T13:01:09.956Z,98564.16
2023-02-26T13:03:53.984Z,98557.44
2023-02-26T13:06:43.549Z,98560.19
2023-02-26T13:09:19.585Z,98564.13
2023-02-26T13:11:51.635Z,98577.94
2023-02-26T13:14:26.602Z,98563.75
2023-02-26T13:16:58.514Z,98579.34
2023-02-26T13:19:32.161Z,98584.97
2023-02-26T13:22:01.875Z,98562.69
2023-02-26T13:24:34.840Z,98574.44
2023-02-26T13:27:04.517Z,98579.31
2023-02-26T13:29:37.680Z,98575.84
2023-02-26T13:32:07.875Z,98567.81
2023-02-26T13:34:40.739Z,98575.16
2023-02-26T13:37:13.728Z,98561.81
2023-02-26T13:39:46.449Z,98571.00
2023-02-26T13:42:26.581Z,98579.97
2023-02-26T13:45:01.066Z,98574.91
2023-02-26T13:47:39.591Z,98574.09
2023-02-26T13:50:17.652Z,98569.00
2023-02-26T13:52:52.264Z,98578.06
2023-02-26T13:55:35.156Z,98559.75
2023-02-26T13:58:16.907Z,98564.88
2023-02-26T14:00:48.133Z,98570.00
2023-02-26T14:03:32.094Z,98574.06
2023-02-26T14:06:22.738Z,98569.63
2023-02-26T14:08:52.109Z,98572.88
2023-02-26T14:11:29.077Z,98571.09
2023-02-26T14:14:08.257Z,98577.28
2023-02-26T14:16:36.726Z,98587.53
2023-02-26T14:19:05.616Z,98582.03
2023-02-26T14:21:39.438Z,98588.44
2023-02-26T14:24:14.256Z,98599.19
2023-02-26T14:26:45.963Z,98600.84
2023-02-26T14:29:15.792Z,98589.16
2023-02-26T14:32:03.876Z,98594.78
2023-02-26T14:34:36.579Z,98588.53
2023-02-26T14:37:08.386Z,98592.31
2023-02-26T14:39:38.141Z,98587.44
2023-02-26T14:42:07.956Z,98599.38
2023-02-26T14:44:38.097Z,98589.78
2023-02-26T14:47:06.317Z,98604.56
2023-02-26T14:49:35.385Z,98602.34
2023-02-26T14:52:22.197Z,98594.06
2023-02-26T14:55:17.552Z,98604.53
2023-02-26T14:57:51.493Z,98625.31
2023-02-26T15:00:30.136Z,98603.28
2023-02-26T15:03:07.775Z,98607.59
2023-02-26T15:05:45.586Z,98611.88
2023-02-26T15:08:19.696Z,98615.34
2023-02-26T15:10:57.215Z,98625.78
2023-02-26T15:13:33.973Z,98620.69
2023-02-26T15:16:07.772Z,98615.94
2023-02-26T15:18:53.175Z,98622.66
2023-02-26T15:21:25.545Z,98652.22
2023-02-26T15:23:55.360Z,98634.13
2023-02-26T15:26:28.942Z,98621.69
2023-02-26T15:28:59.788Z,98631.03
2023-02-26T15:31:31.754Z,98624.28
2023-02-26T15:34:00.171Z,98627.84
2023-02-26T15:36:29.528Z,98636.03
2023-02-26T15:38:58.361Z,98636.47
2023-02-26T15:41:27.639Z,98652.53
2023-02-26T15:43:57.674Z,98647.94
2023-02-26T15:46:30.129Z,98654.44
2023-02-26T15:49:01.498Z,98639.25
2023-02-26T15:51:29.700Z,98649.72
2023-02-26T15:54:02.877Z,98656.31
2023-02-26T15:56:32.237Z,98659.63
2023-02-26T15:59:01.744Z,98652.38
2023-02-26T16:01:31.917Z,98674.97
2023-02-26T16:04:01.804Z,98651.38
2023-02-26T16:06:31.046Z,98675.09
2023-02-26T16:09:00.312Z,98678.41
2023-02-26T16:11:31.384Z,98665.38
2023-02-26T16:14:00.661Z,98674.41
2023-02-26T16:16:29.900Z,98671.72
2023-02-26T16:18:59.918Z,98669.47
2023-02-26T16:21:29.991Z,98672.47
2023-02-26T16:23:58.902Z,98681.59
2023-02-26T16:26:29.035Z,98689.31
2023-02-26T16:28:59.641Z,98696.94
2023-02-26T16:31:28.411Z,98695.09
2023-02-26T16:34:01.324Z,98698.31
2023-02-26T16:36:34.000Z,98687.66
2023-02-26T16:39:14.661Z,98700.81
2023-02-26T16:41:42.921Z,98709.03
2023-02-26T16:44:26.002Z,98718.69
2023-02-26T16:46:54.909Z,98721.56
2023-02-26T16:49:24.915Z,98738.88
2023-02-26T16:51:56.106Z,98724.19
2023-02-26T16:54:27.100Z,98734.72
2023-02-26T16:56:59.570Z,98747.88
2023-02-26T16:59:30.556Z,98741.03
2023-02-26T17:02:01.640Z,98736.19
2023-02-26T17:04:31.782Z,98739.53
2023-02-26T17:07:01.189Z,98747.53
2023-02-26T17:09:36.967Z,98752.88
2023-02-26T17:12:06.969Z,98764.38
2023-02-26T17:14:40.146Z,98772.72
2023-02-26T17:17:10.449Z,98767.53
2023-02-26T17:19:38.674Z,98778.53
2023-02-26T17:22:12.517Z,98750.53
2023-02-26T17:24:44.092Z,98778.88
2023-02-26T17:27:14.781Z,98796.03
2023-02-26T17:29:44.613Z,98789.19
2023-02-26T17:32:16.767Z,98793.16
2023-02-26T17:34:48.225Z,98797.00
2023-02-26T17:37:17.709Z,98809.00
2023-02-26T17:39:46.137Z,98803.81
2023-02-26T17:42:19.265Z,98814.13
2023-02-26T17:44:47.350Z,98817.34
2023-02-26T17:47:16.978Z,98816.94
2023-02-26T17:49:45.098Z,98814.63
2023-02-26T17:52:13.684Z,98837.63
2023-02-26T17:54:43.215Z,98838.06
2023-02-26T17:57:15.688Z,98832.97
2023-02-26T17:59:43.691Z,98834.00
2023-02-26T18:02:16.354Z,98825.28
2023-02-26T18:04:45.140Z,98837.59
2023-02-26T18:07:16.264Z,98841.09
2023-02-26T18:09:46.145Z,98840.97
2023-02-26T18:12:14.903Z,98835.50
2023-02-26T18:14:46.116Z,98838.94
2023-02-26T18:17:17.396Z,98842.44
2023-02-26T18:19:46.221Z,98842.56
2023-02-26T18:22:17.388Z,98839.06
2023-02-26T18:24:46.989Z,98842.19
2023-02-26T18:27:15.776Z,98841.25
2023-02-26T18:29:44.069Z,98842.91
2023-02-26T18:32:13.466Z,98840.91
2023-02-26T18:34:41.675Z,98843.75
2023-02-26T18:37:12.167Z,98843.59
2023-02-26T18:39:40.190Z,98847.84
2023-02-26T18:42:14.631Z,98845.22
2023-02-26T18:44:42.656Z,98848.50
2023-02-26T18:47:11.389Z,98861.25
2023-02-26T18:49:39.466Z,98847.31
2023-02-26T18:52:07.553Z,98851.69
2023-02-26T18:54:38.035Z,98867.59
2023-02-26T18:57:06.683Z,98863.59
2023-02-26T18:59:38.458Z,98850.34
2023-02-26T19:02:11.768Z,98852.25
2023-02-26T19:04:40.230Z,98873.84
2023-02-26T19:07:11.049Z,98862.06
2023-02-26T19:09:39.177Z,98865.06
2023-02-26T19:12:08.984Z,98862.66
2023-02-26T19:14:39.113Z,98874.00
2023-02-26T19:17:07.138Z,98869.66
2023-02-26T19:19:35.308Z,98870.00
2023-02-26T19:22:03.347Z,98868.03
2023-02-26T19:24:31.351Z,98877.81
2023-02-26T19:26:59.484Z,98875.09
2023-02-26T19:29:27.560Z,98869.78
2023-02-26T19:31:57.127Z,98869.06
2023-02-26T19:34:25.905Z,98870.38
2023-02-26T19:36:53.894Z,98873.56
2023-02-26T19:39:21.953Z,98875.56
2023-02-26T19:41:52.567Z,98882.00
2023-02-26T19:44:21.239Z,98893.78
2023-02-26T19:46:49.844Z,98888.59
2023-02-26T19:49:19.273Z,98894.03
2023-02-26T19:51:47.645Z,98892.09
2023-02-26T19:54:15.709Z,98898.19
2023-02-26T19:56:44.092Z,98911.66
2023-02-26T19:59:12.357Z,98911.00
2023-02-26T20:01:41.455Z,98908.78
2023-02-26T20:04:09.712Z,98924.81
2023-02-26T20:06:39.150Z,98917.38
2023-02-26T20:09:07.247Z,98918.91
2023-02-26T20:11:35.376Z,98916.22
2023-02-26T20:14:03.480Z,98922.78
2023-02-26T20:16:31.566Z,98930.44
2023-02-26T20:19:01.897Z,98936.75
2023-02-26T20:21:29.939Z,98931.41
2023-02-26T20:23:59.312Z,98934.34
2023-02-26T20:26:29.724Z,98935.09
2023-02-26T20:28:57.763Z,98941.47
2023-02-26T20:31:30.549Z,98926.50
2023-02-26T20:33:59.213Z,98941.69
2023-02-26T20:36:27.792Z,98937.91
2023-02-26T20:38:55.954Z,98956.28
2023-02-26T20:41:25.681Z,98942.38
2023-02-26T20:43:57.700Z,98955.31
2023-02-26T20:46:26.955Z,98923.06
2023-02-26T20:48:55.001Z,98947.16
2023-02-26T20:51:23.251Z,98950.97
2023-02-26T20:53:51.485Z,98958.25
2023-02-26T20:56:19.496Z,98955.28
2023-02-26T20:58:50.001Z,98964.41
2023-02-26T21:01:20.410Z,98969.13
2023-02-26T21:03:48.409Z,98962.13
2023-02-26T21:06:16.483Z,98973.34
2023-02-26T21:08:45.137Z,98973.91
2023-02-26T21:11:13.974Z,98971.97
2023-02-26T21:13:42.040Z,98967.13
2023-02-26T21:16:11.644Z,98973.22
2023-02-26T21:18:43.128Z,98962.78
2023-02-26T21:21:11.218Z,98967.03
2023-02-26T21:23:39.239Z,98965.91
2023-02-26T21:26:07.322Z,98962.13
2023-02-26T21:28:35.325Z,98969.19
2023-02-26T21:31:03.615Z,98976.59
2023-02-26T21:33:35.456Z,98974.31
2023-02-26T21:36:03.508Z,98968.16
2023-02-26T21:38:31.559Z,98968.50
2023-02-26T21:40:59.711Z,98971.03
2023-02-26T21:43:27.772Z,98975.88
2023-02-26T21:45:55.882Z,98967.88
2023-02-26T21:48:23.886Z,98967.63
2023-02-26T21:50:56.189Z,98976.03
2023-02-26T21:53:24.422Z,98978.66
2023-02-26T21:55:52.560Z,98961.91
2023-02-26T21:58:20.622Z,98963.94
2023-02-26T22:02:38.492Z,98965.22
2023-02-26T22:05:06.917Z,98963.41
2023-02-26T22:07:35.118Z,98966.34
2023-02-26T22:10:06.125Z,98962.00
2023-02-26T22:12:34.617Z,98962.69
2023-02-26T22:15:02.701Z,98961.34
2023-02-26T22:17:33.092Z,98980.31
2023-02-26T22:20:05.250Z,98973.34
2023-02-26T22:22:33.270Z,98973.59
2023-02-26T22:25:01.455Z,98983.66
2023-02-26T22:27:33.223Z,98973.81
2023-02-26T22:30:01.349Z,98984.50
2023-02-26T22:32:29.546Z,98992.63
2023-02-26T22:34:57.810Z,98983.53
2023-02-26T22:37:27.340Z,98977.56
2023-02-26T22:39:55.391Z,98979.56
2023-02-26T22:42:24.045Z,98974.03
2023-02-26T22:44:52.274Z,98957.06
2023-02-26T22:47:20.298Z,98975.72
2023-02-26T22:49:48.889Z,98971.97
2023-02-26T22:52:16.926Z,98981.81
2023-02-26T22:54:48.627Z,98963.75
2023-02-26T22:57:16.724Z,98969.97
2023-02-26T22:59:44.733Z,98974.69
2023-02-26T23:02:12.758Z,98973.06
2023-02-26T23:04:40.842Z,98971.47
2023-02-26T23:07:09.107Z,98964.97
2023-02-26T23:09:37.374Z,98975.38
2023-02-26T23:12:07.287Z,98971.72
2023-02-26T23:14:35.479Z,98970.91
2023-02-26T23:17:05.722Z,98969.50
2023-02-26T23:19:34.136Z,98971.50
2023-02-26T23:22:02.112Z,98973.84
2023-02-26T23:24:30.147Z,98966.94
2023-02-26T23:26:58.202Z,98976.66
2023-02-26T23:29:27.559Z,98972.03
2023-02-26T23:31:55.819Z,98976.44
2023-02-26T23:34:26.777Z,98979.16
2023-02-26T23:36:57.124Z,98987.75
2023-02-26T23:39:28.409Z,98982.56
2023-02-26T23:41:56.693Z,98991.09
2023-02-26T23:44:25.136Z,98980.50
2023-02-26T23:46:54.575Z,98977.97
2023-02-26T23:49:22.617Z,98984.25
2023-02-26T23:51:50.676Z,98977.41
2023-02-26T23:54:19.039Z,98988.47
2023-02-26T23:56:49.188Z,98989.91
2023-02-26T23:59:18.306Z,98972.78
